Time;durP1;ratioP1;P1;durP2;ratioP2;P2;SDS_P1;SDS_P2;PMS_P1;PMS_P2;Temp;Humidity;BMP_temperature;BMP_pressure;BME280_temperature;BME280_humidity;BME280_pressure;Samples;Min_cycle;Max_cycle;Signal;HPM_P1;HPM_P2
2022/10/09 00:00:22;;;;;;;5.32;3.10;;;17.60;60.00;;;;;;5053518;28;20175;-68
2022/10/09 00:02:48;;;;;;;4.38;3.13;;;17.60;60.00;;;;;;5053336;28;20175;-68
2022/10/09 00:05:14;;;;;;;6.32;3.00;;;17.60;60.00;;;;;;5051975;28;20179;-70
2022/10/09 00:07:39;;;;;;;4.25;2.90;;;17.60;60.00;;;;;;5052836;28;20171;-69
2022/10/09 00:10:05;;;;;;;4.07;2.90;;;17.60;60.00;;;;;;5052551;28;20183;-69
2022/10/09 00:12:30;;;;;;;4.95;2.72;;;17.60;59.90;;;;;;5052319;28;20226;-69
2022/10/09 00:14:56;;;;;;;4.20;2.42;;;17.60;60.00;;;;;;5052985;28;20227;-68
2022/10/09 00:17:21;;;;;;;5.20;2.85;;;17.60;60.00;;;;;;5053437;28;20258;-68
2022/10/09 00:19:47;;;;;;;4.30;2.67;;;17.60;60.00;;;;;;5051736;28;20249;-68
2022/10/09 00:22:12;;;;;;;4.72;3.00;;;17.60;60.00;;;;;;5052520;28;20649;-68
2022/10/09 00:24:38;;;;;;;3.05;2.58;;;17.50;60.00;;;;;;5052010;28;20186;-68
2022/10/09 00:27:04;;;;;;;4.00;2.45;;;17.50;59.90;;;;;;5052560;28;20186;-68
2022/10/09 00:29:29;;;;;;;4.55;2.83;;;17.50;59.90;;;;;;5058593;28;20167;-69
2022/10/09 00:31:55;;;;;;;3.85;2.78;;;17.60;60.00;;;;;;5072176;28;20505;-68
2022/10/09 00:34:20;;;;;;;3.55;2.50;;;17.50;60.00;;;;;;5072841;28;20209;-68
2022/10/09 00:36:46;;;;;;;3.95;2.30;;;17.50;60.10;;;;;;5073101;28;20304;-68
2022/10/09 00:39:11;;;;;;;4.13;2.83;;;17.50;60.00;;;;;;5057892;28;20217;-68
2022/10/09 00:41:37;;;;;;;4.13;2.80;;;17.50;60.00;;;;;;5052227;28;20186;-68
2022/10/09 00:44:23;;;;;;;4.20;3.13;;;17.50;60.00;;;;;;5052556;28;20178;-68
2022/10/09 00:46:49;;;;;;;4.00;2.60;;;17.50;60.00;;;;;;5051515;28;20618;-69
2022/10/09 00:49:23;;;;;;;4.40;2.80;;;17.50;60.00;;;;;;5051130;28;20171;-69
2022/10/09 00:51:49;;;;;;;3.67;2.28;;;17.50;60.10;;;;;;5035193;28;20213;-68
2022/10/09 00:54:16;;;;;;;2.90;2.30;;;17.50;60.10;;;;;;5051834;28;20167;-68
2022/10/09 00:56:41;;;;;;;6.47;3.03;;;17.50;60.10;;;;;;5051572;28;20178;-68
2022/10/09 00:59:07;;;;;;;3.67;2.58;;;17.50;60.10;;;;;;5051166;28;20625;-68
2022/10/09 01:01:32;;;;;;;3.22;2.28;;;17.50;60.10;;;;;;5050655;28;20179;-68
2022/10/09 01:03:58;;;;;;;3.83;2.70;;;17.50;60.10;;;;;;5052256;28;20175;-68
2022/10/09 01:06:41;;;;;;;3.90;2.78;;;17.50;60.00;;;;;;5052824;28;20191;-68
2022/10/09 01:09:16;;;;;;;5.53;2.78;;;17.40;59.90;;;;;;5051371;28;20182;-69
2022/10/09 01:11:59;;;;;;;2.50;2.30;;;17.50;60.10;;;;;;5052766;28;20205;-69
2022/10/09 01:14:27;;;;;;;5.07;2.63;;;17.40;60.00;;;;;;5034150;28;20278;-68
2022/10/09 01:17:01;;;;;;;3.38;2.22;;;17.40;60.00;;;;;;5034837;28;20175;-68
2022/10/09 01:19:50;;;;;;;4.68;2.60;;;17.40;60.00;;;;;;5034884;28;20179;-68
2022/10/09 01:22:53;;;;;;;3.47;2.47;;;17.40;60.00;;;;;;5049763;28;20180;-68
2022/10/09 01:25:27;;;;;;;4.32;2.60;;;17.40;59.90;;;;;;5052068;28;20217;-68
2022/10/09 01:27:53;;;;;;;2.67;2.20;;;17.40;60.10;;;;;;5050238;28;20193;-69
2022/10/09 01:30:18;;;;;;;3.35;2.33;;;17.40;59.90;;;;;;5063376;28;20249;-68
2022/10/09 01:32:45;;;;;;;2.83;2.08;;;17.40;60.00;;;;;;5071064;28;20174;-68
2022/10/09 01:35:11;;;;;;;4.13;2.42;;;17.40;60.10;;;;;;5053518;28;20294;-68
2022/10/09 01:37:38;;;;;;;2.72;2.03;;;17.40;60.00;;;;;;5058397;28;20278;-67
2022/10/09 01:40:04;;;;;;;2.45;2.05;;;17.40;60.10;;;;;;5050692;28;20657;-68
2022/10/09 01:42:29;;;;;;;2.80;2.20;;;17.40;60.10;;;;;;5050585;28;20187;-68
2022/10/09 01:44:55;;;;;;;2.42;1.98;;;17.40;60.10;;;;;;5051240;28;20648;-68
2022/10/09 01:47:20;;;;;;;3.38;2.53;;;17.40;60.00;;;;;;5051386;28;20187;-68
2022/10/09 01:50:04;;;;;;;4.97;2.47;;;17.40;60.00;;;;;;5050216;28;20529;-68
2022/10/09 01:52:53;;;;;;;3.42;2.15;;;17.40;60.00;;;;;;5050687;28;20218;-68
2022/10/09 01:55:28;;;;;;;3.30;2.17;;;17.40;60.00;;;;;;5051654;28;20685;-68
2022/10/09 01:58:16;;;;;;;3.03;2.40;;;17.40;60.10;;;;;;5050041;28;20182;-68
2022/10/09 02:01:03;;;;;;;2.65;2.22;;;17.30;60.00;;;;;;5048648;28;20606;-68
2022/10/09 02:03:29;;;;;;;4.00;2.28;;;17.30;60.00;;;;;;5053647;28;20179;-68
2022/10/09 02:05:55;;;;;;;2.53;2.05;;;17.30;60.00;;;;;;5054157;28;20752;-68
2022/10/09 02:08:20;;;;;;;2.10;1.80;;;17.30;60.00;;;;;;5053473;28;20175;-69
2022/10/09 02:10:46;;;;;;;3.97;2.28;;;17.30;60.00;;;;;;5054949;28;20282;-68
2022/10/09 02:13:12;;;;;;;2.10;1.90;;;17.30;60.00;;;;;;5053929;28;20713;-68
2022/10/09 02:15:46;;;;;;;2.13;1.90;;;17.30;60.00;;;;;;5037980;28;20236;-69
2022/10/09 02:18:12;;;;;;;2.75;2.10;;;17.30;60.00;;;;;;5037173;28;20175;-68
2022/10/09 02:20:40;;;;;;;3.72;2.10;;;17.30;60.00;;;;;;5037504;28;20171;-68
2022/10/09 02:23:06;;;;;;;2.97;2.30;;;17.30;60.00;;;;;;5053401;28;20176;-68
2022/10/09 02:25:32;;;;;;;3.13;2.13;;;17.30;60.10;;;;;;5036787;28;20182;-68
2022/10/09 02:27:57;;;;;;;2.45;1.83;;;17.30;60.10;;;;;;5036984;28;20171;-69
2022/10/09 02:30:23;;;;;;;2.33;1.80;;;17.30;60.00;;;;;;5067776;28;20550;-69
2022/10/09 02:32:52;;;;;;;3.58;1.88;;;17.30;60.00;;;;;;5056706;28;20187;-68
2022/10/09 02:35:18;;;;;;;2.75;2.30;;;17.30;60.00;;;;;;5074759;28;20171;-68
2022/10/09 02:37:43;;;;;;;2.17;1.90;;;17.30;60.10;;;;;;5063808;28;20517;-68
2022/10/09 02:40:09;;;;;;;3.72;2.45;;;17.20;60.00;;;;;;5053921;28;20175;-68
2022/10/09 02:42:35;;;;;;;4.07;1.98;;;17.30;60.00;;;;;;5053834;28;20167;-68
2022/10/09 02:45:00;;;;;;;2.20;1.75;;;17.20;60.00;;;;;;5054778;28;20706;-68
2022/10/09 02:47:26;;;;;;;2.25;1.80;;;17.20;60.10;;;;;;5053660;28;20183;-68
2022/10/09 02:49:51;;;;;;;2.38;1.88;;;17.20;60.00;;;;;;5054978;28;20210;-68
2022/10/09 02:52:17;;;;;;;2.35;1.58;;;17.20;60.10;;;;;;5053396;28;20289;-68
2022/10/09 02:54:42;;;;;;;2.05;1.77;;;17.20;60.10;;;;;;5054621;28;20233;-68
2022/10/09 02:57:08;;;;;;;2.25;1.85;;;17.20;60.10;;;;;;5053972;28;20167;-69
2022/10/09 02:59:34;;;;;;;2.15;1.88;;;17.20;60.10;;;;;;5053996;28;20176;-68
2022/10/09 03:01:59;;;;;;;2.40;1.65;;;17.20;60.10;;;;;;5054394;28;20175;-69
2022/10/09 03:04:25;;;;;;;1.77;1.67;;;17.20;60.00;;;;;;5053772;28;20643;-68
2022/10/09 03:06:50;;;;;;;2.03;1.83;;;17.20;60.10;;;;;;5052983;28;20179;-69
2022/10/09 03:09:16;;;;;;;2.03;1.83;;;17.20;60.10;;;;;;5054257;28;20248;-69
2022/10/09 03:11:41;;;;;;;2.60;1.90;;;17.20;60.10;;;;;;5054210;28;20542;-69
2022/10/09 03:14:08;;;;;;;3.17;2.00;;;17.20;60.10;;;;;;5052262;28;20221;-69
2022/10/09 03:16:33;;;;;;;2.38;2.17;;;17.20;60.10;;;;;;5053948;28;20171;-67
2022/10/09 03:18:59;;;;;;;2.88;1.83;;;17.10;60.00;;;;;;5053270;28;20217;-68
2022/10/09 03:21:25;;;;;;;2.53;2.22;;;17.10;60.10;;;;;;5053537;28;20232;-68
2022/10/09 03:23:52;;;;;;;2.60;2.00;;;17.20;60.10;;;;;;5054171;28;20258;-69
2022/10/09 03:26:19;;;;;;;2.63;2.35;;;17.10;60.10;;;;;;5053742;28;20190;-69
2022/10/09 03:28:46;;;;;;;2.08;1.98;;;17.10;60.00;;;;;;5053123;28;20175;-68
2022/10/09 03:31:12;;;;;;;2.35;1.90;;;17.10;60.00;;;;;;5073669;28;20210;-68
2022/10/09 03:33:38;;;;;;;2.60;1.85;;;17.10;60.10;;;;;;5073987;28;20170;-68
2022/10/09 03:36:06;;;;;;;2.22;1.75;;;17.10;60.10;;;;;;5072861;28;20189;-68
2022/10/09 03:38:31;;;;;;;2.17;1.98;;;17.10;60.10;;;;;;5057824;28;20175;-68
2022/10/09 03:40:58;;;;;;;2.83;2.33;;;17.10;60.10;;;;;;5053246;28;20174;-68
2022/10/09 03:43:23;;;;;;;3.10;2.47;;;17.10;60.10;;;;;;5052269;28;20181;-68
2022/10/09 03:45:49;;;;;;;2.72;2.00;;;17.10;60.10;;;;;;5053783;28;20261;-68
2022/10/09 03:48:15;;;;;;;2.13;1.92;;;17.10;60.10;;;;;;5052727;28;20638;-68
2022/10/09 03:50:40;;;;;;;3.42;2.35;;;17.10;60.10;;;;;;5052344;28;20195;-68
2022/10/09 03:53:07;;;;;;;2.00;1.80;;;17.10;60.10;;;;;;5053366;28;20522;-67
2022/10/09 03:55:32;;;;;;;2.47;2.17;;;17.10;60.10;;;;;;5053035;28;20180;-68
2022/10/09 03:57:58;;;;;;;2.45;1.88;;;17.10;60.00;;;;;;5052826;28;20190;-68
2022/10/09 04:00:23;;;;;;;2.15;1.90;;;17.10;60.10;;;;;;5053498;28;20163;-68
2022/10/09 04:02:49;;;;;;;2.38;2.17;;;17.10;60.10;;;;;;5052482;28;20225;-68
2022/10/09 04:05:14;;;;;;;2.83;2.17;;;17.10;60.10;;;;;;5053143;28;20342;-69
2022/10/09 04:07:40;;;;;;;2.80;2.35;;;17.10;60.10;;;;;;5052948;28;20534;-68
2022/10/09 04:10:06;;;;;;;3.78;2.05;;;17.10;60.10;;;;;;5052328;28;20214;-68
2022/10/09 04:12:31;;;;;;;1.67;1.58;;;17.10;60.10;;;;;;5053399;28;20303;-68
2022/10/09 04:14:57;;;;;;;2.05;1.85;;;17.10;60.10;;;;;;5052468;28;20222;-68
2022/10/09 04:17:22;;;;;;;3.45;1.88;;;17.10;60.90;;;;;;5051798;28;20202;-68
2022/10/09 04:19:48;;;;;;;2.83;2.10;;;17.10;60.20;;;;;;5052851;28;20589;-68
2022/10/09 04:22:14;;;;;;;3.35;2.15;;;17.00;60.00;;;;;;5052519;28;20205;-67
2022/10/09 04:24:40;;;;;;;1.95;1.77;;;17.00;60.00;;;;;;5051927;28;20175;-68
2022/10/09 04:27:05;;;;;;;2.65;2.00;;;17.10;60.20;;;;;;5051970;28;20598;-68
2022/10/09 04:29:31;;;;;;;3.15;2.08;;;17.00;60.10;;;;;;5058639;28;20179;-68
2022/10/09 04:31:56;;;;;;;2.40;1.73;;;17.00;60.10;;;;;;5071675;28;20210;-68
2022/10/09 04:34:22;;;;;;;2.28;1.73;;;17.00;60.10;;;;;;5072635;28;20261;-67
2022/10/09 04:36:47;;;;;;;2.72;2.03;;;17.00;60.10;;;;;;5072737;28;20262;-67
2022/10/09 04:39:13;;;;;;;1.92;1.70;;;17.00;60.10;;;;;;5052299;28;20270;-67
2022/10/09 04:41:38;;;;;;;2.80;1.77;;;17.00;60.10;;;;;;5052955;28;20258;-67
2022/10/09 04:44:04;;;;;;;2.75;2.13;;;17.00;60.10;;;;;;5052508;28;20278;-68
2022/10/09 04:46:29;;;;;;;2.20;1.80;;;17.00;60.10;;;;;;5052074;28;20760;-68
2022/10/09 04:48:55;;;;;;;3.42;2.08;;;17.00;60.10;;;;;;5051505;28;20266;-68
2022/10/09 04:51:20;;;;;;;2.25;1.90;;;17.00;60.10;;;;;;5051677;28;20215;-67
2022/10/09 04:53:46;;;;;;;2.75;2.00;;;17.00;60.10;;;;;;5052056;28;20175;-68
2022/10/09 04:56:14;;;;;;;1.70;1.60;;;17.00;60.10;;;;;;5052174;28;20175;-68
2022/10/09 04:58:39;;;;;;;2.80;1.88;;;17.00;60.10;;;;;;5052610;28;20179;-68
2022/10/09 05:01:16;;;;;;;2.10;1.90;;;17.00;60.10;;;;;;5051736;28;20178;-67
2022/10/09 05:03:42;;;;;;;1.73;1.63;;;16.90;60.10;;;;;;5052058;28;20183;-67
2022/10/09 05:06:08;;;;;;;2.13;1.92;;;17.00;60.10;;;;;;5051292;28;20186;-67
2022/10/09 05:08:34;;;;;;;3.13;2.08;;;16.90;60.00;;;;;;5052581;28;20179;-68
2022/10/09 05:11:06;;;;;;;1.80;1.65;;;16.90;60.10;;;;;;5051503;28;20215;-68
2022/10/09 05:13:35;;;;;;;2.08;1.95;;;16.90;60.00;;;;;;5051154;28;20222;-67
2022/10/09 05:16:02;;;;;;;1.70;1.60;;;17.00;60.00;;;;;;5052219;28;20207;-67
2022/10/09 05:18:27;;;;;;;1.80;1.70;;;16.90;60.10;;;;;;5052332;28;20233;-67
2022/10/09 05:20:53;;;;;;;2.03;1.60;;;16.90;60.10;;;;;;5051815;28;20175;-67
2022/10/09 05:23:19;;;;;;;2.53;1.92;;;16.90;60.10;;;;;;5051452;28;20237;-67
2022/10/09 05:25:53;;;;;;;2.10;1.90;;;16.90;60.00;;;;;;5052453;28;20175;-67
2022/10/09 05:28:19;;;;;;;2.40;1.75;;;16.90;60.40;;;;;;5051626;28;20174;-68
2022/10/09 05:30:44;;;;;;;2.45;1.95;;;16.90;60.10;;;;;;5068480;28;20198;-68
2022/10/09 05:33:10;;;;;;;2.58;2.08;;;16.90;60.10;;;;;;5072073;28;20175;-67
2022/10/09 05:35:35;;;;;;;1.70;1.60;;;16.90;60.10;;;;;;5071561;28;20170;-69
2022/10/09 05:38:00;;;;;;;1.70;1.60;;;16.90;60.10;;;;;;5063559;28;20522;-67
2022/10/09 05:40:26;;;;;;;1.95;1.70;;;16.90;60.10;;;;;;5055255;28;20171;-67
2022/10/09 05:42:52;;;;;;;2.10;1.90;;;16.90;60.10;;;;;;5055341;28;20175;-66
2022/10/09 05:45:17;;;;;;;3.30;2.03;;;16.90;60.10;;;;;;5055204;28;20241;-67
2022/10/09 05:47:43;;;;;;;2.58;2.22;;;16.90;60.00;;;;;;5055773;28;20184;-67
2022/10/09 05:50:08;;;;;;;2.70;1.77;;;16.90;60.10;;;;;;5054395;28;20648;-67
2022/10/09 05:52:34;;;;;;;1.73;1.55;;;16.80;60.00;;;;;;5055501;28;20222;-67
2022/10/09 05:55:00;;;;;;;1.92;1.73;;;16.80;60.00;;;;;;5055378;28;20179;-67
2022/10/09 05:57:25;;;;;;;2.30;1.88;;;16.80;60.00;;;;;;5055306;28;20179;-67
2022/10/09 05:59:51;;;;;;;2.30;2.10;;;16.80;60.00;;;;;;5055913;28;20629;-67
2022/10/09 06:02:16;;;;;;;2.47;2.10;;;16.80;60.00;;;;;;5054740;28;20187;-67
2022/10/09 06:04:42;;;;;;;2.13;1.92;;;16.80;60.10;;;;;;5055871;28;20163;-67
2022/10/09 06:07:07;;;;;;;2.60;1.73;;;16.80;60.00;;;;;;5055281;28;20182;-68
2022/10/09 06:09:33;;;;;;;2.50;2.28;;;16.80;60.00;;;;;;5054680;28;20198;-67
2022/10/09 06:11:58;;;;;;;3.28;2.38;;;16.80;60.00;;;;;;5055419;28;20298;-68
2022/10/09 06:14:24;;;;;;;2.90;2.13;;;16.80;60.00;;;;;;5055279;28;20318;-67
2022/10/09 06:16:50;;;;;;;2.30;2.10;;;16.80;60.00;;;;;;5054499;28;20371;-67
2022/10/09 06:19:16;;;;;;;2.17;1.95;;;16.80;60.00;;;;;;5054918;28;20850;-68
2022/10/09 06:21:42;;;;;;;2.40;1.95;;;16.80;60.00;;;;;;5055272;28;20187;-68
2022/10/09 06:24:14;;;;;;;2.05;1.85;;;16.80;60.00;;;;;;5053686;28;20179;-68
2022/10/09 06:26:40;;;;;;;2.10;2.00;;;16.80;60.00;;;;;;5038236;28;20183;-68
2022/10/09 06:29:05;;;;;;;3.08;2.03;;;16.80;60.00;;;;;;5057403;28;20182;-68
2022/10/09 06:31:31;;;;;;;2.92;1.88;;;16.80;60.00;;;;;;5074569;28;20209;-67
2022/10/09 06:33:58;;;;;;;2.22;1.88;;;16.80;60.00;;;;;;5074780;28;20177;-67
2022/10/09 06:36:25;;;;;;;2.15;1.98;;;16.80;60.00;;;;;;5075046;28;20186;-66
2022/10/09 06:38:52;;;;;;;3.08;2.10;;;16.80;59.90;;;;;;5055569;28;20179;-67
2022/10/09 06:41:19;;;;;;;2.38;2.03;;;16.90;59.90;;;;;;5054501;28;20199;-67
2022/10/09 06:43:49;;;;;;;2.30;2.10;;;16.90;59.80;;;;;;5054887;28;20687;-67
2022/10/09 06:46:15;;;;;;;2.47;2.00;;;17.00;59.80;;;;;;5053903;28;20183;-67
2022/10/09 06:48:40;;;;;;;2.28;2.03;;;17.10;59.90;;;;;;5053766;28;20177;-67
2022/10/09 06:51:07;;;;;;;2.35;2.15;;;17.10;59.70;;;;;;5054333;28;20203;-67
2022/10/09 06:53:37;;;;;;;2.00;1.90;;;17.20;59.60;;;;;;5053471;28;20183;-68
2022/10/09 06:56:03;;;;;;;2.38;2.17;;;17.20;59.50;;;;;;5053993;28;20261;-68
2022/10/09 06:58:28;;;;;;;2.47;2.10;;;17.20;59.30;;;;;;5053775;28;20262;-68
2022/10/09 07:01:07;;;;;;;2.30;2.10;;;17.20;59.20;;;;;;5054701;28;20171;-68
2022/10/09 07:03:33;;;;;;;2.30;2.08;;;17.30;59.20;;;;;;5054622;28;20175;-68
2022/10/09 07:06:12;;;;;;;2.50;2.30;;;17.30;59.20;;;;;;5053193;28;20625;-68
2022/10/09 07:08:38;;;;;;;2.40;2.20;;;17.20;59.20;;;;;;5034579;28;20176;-69
2022/10/09 07:11:11;;;;;;;2.88;2.10;;;17.30;59.20;;;;;;5033575;28;20659;-69
2022/10/09 07:13:37;;;;;;;2.15;1.98;;;17.30;59.20;;;;;;5033606;28;20266;-68
2022/10/09 07:16:03;;;;;;;2.83;2.63;;;17.30;59.20;;;;;;5034364;28;20199;-68
2022/10/09 07:18:28;;;;;;;2.63;2.28;;;17.40;59.20;;;;;;5034444;28;20202;-67
2022/10/09 07:20:55;;;;;;;2.40;2.20;;;17.40;59.20;;;;;;5033517;28;20194;-67
2022/10/09 07:23:20;;;;;;;2.33;2.03;;;17.40;59.20;;;;;;5053956;28;20175;-69
2022/10/09 07:25:46;;;;;;;2.45;1.98;;;17.40;59.20;;;;;;5041795;28;20545;-68
2022/10/09 07:28:11;;;;;;;1.90;1.80;;;17.40;59.20;;;;;;5033002;28;20643;-68
2022/10/09 07:30:37;;;;;;;2.05;1.85;;;17.40;59.20;;;;;;5063976;28;20174;-68
2022/10/09 07:33:02;;;;;;;2.20;2.00;;;17.40;59.20;;;;;;5073824;28;20189;-67
2022/10/09 07:35:28;;;;;;;2.55;1.83;;;17.50;59.30;;;;;;5073423;28;20514;-67
2022/10/09 07:37:54;;;;;;;1.75;1.65;;;17.50;59.30;;;;;;5054624;28;20175;-67
2022/10/09 07:40:19;;;;;;;1.70;1.60;;;17.50;59.40;;;;;;5053384;28;20181;-67
2022/10/09 07:42:45;;;;;;;2.63;1.90;;;17.50;59.50;;;;;;5053206;28;20186;-67
2022/10/09 07:45:10;;;;;;;3.35;2.00;;;17.50;59.50;;;;;;5053574;28;20179;-67
2022/10/09 07:47:36;;;;;;;1.85;1.75;;;17.50;59.50;;;;;;5053948;28;20201;-67
2022/10/09 07:50:01;;;;;;;2.28;2.08;;;17.50;59.50;;;;;;5052547;28;20534;-67
2022/10/09 07:52:27;;;;;;;2.40;2.20;;;17.50;59.50;;;;;;5053448;28;20672;-67
2022/10/09 07:54:52;;;;;;;1.88;1.77;;;17.60;59.50;;;;;;5053085;28;20248;-67
2022/10/09 07:57:18;;;;;;;1.95;1.80;;;17.60;59.50;;;;;;5052982;28;20529;-67
2022/10/09 07:59:43;;;;;;;3.75;2.35;;;17.60;59.50;;;;;;5053073;28;20190;-67
2022/10/09 08:02:09;;;;;;;2.47;2.28;;;17.60;59.60;;;;;;5052617;28;20167;-68
2022/10/09 08:04:36;;;;;;;3.30;2.25;;;17.60;59.60;;;;;;5053525;28;20630;-67
2022/10/09 08:07:01;;;;;;;2.47;2.22;;;17.60;59.60;;;;;;5053196;28;20216;-67
2022/10/09 08:09:27;;;;;;;4.60;2.33;;;17.60;59.70;;;;;;5052533;28;20546;-68
2022/10/09 08:11:52;;;;;;;2.28;2.03;;;17.60;59.70;;;;;;5053325;28;20195;-67
2022/10/09 08:14:18;;;;;;;2.83;2.47;;;17.70;59.80;;;;;;5052767;28;20624;-67
2022/10/09 08:16:43;;;;;;;3.95;2.72;;;17.70;59.90;;;;;;5052714;28;20272;-71
2022/10/09 08:19:09;;;;;;;3.50;2.63;;;17.70;59.80;;;;;;5052800;28;20190;-73
2022/10/09 08:21:34;;;;;;;3.15;2.67;;;17.80;59.30;;;;;;5052243;28;20183;-73
2022/10/09 08:24:00;;;;;;;5.80;2.85;;;17.80;59.30;;;;;;5051920;28;20259;-73
2022/10/09 08:26:27;;;;;;;11.13;3.30;;;17.80;59.50;;;;;;5053256;28;20539;-74
2022/10/09 08:28:55;;;;;;;5.78;2.88;;;17.90;59.60;;;;;;5053750;28;20175;-71
2022/10/09 08:31:21;;;;;;;5.80;3.15;;;17.80;59.70;;;;;;5071711;28;20297;-69
2022/10/09 08:33:46;;;;;;;5.32;3.00;;;17.90;60.00;;;;;;5072820;28;20261;-69
2022/10/09 08:36:15;;;;;;;8.95;3.58;;;17.90;60.30;;;;;;5067720;28;20171;-71
2022/10/09 08:38:41;;;;;;;7.18;2.78;;;18.00;60.50;;;;;;5052109;28;20171;-70
2022/10/09 08:41:18;;;;;;;8.57;2.95;;;18.00;60.40;;;;;;5051551;28;20304;-71
2022/10/09 08:43:46;;;;;;;5.00;2.78;;;18.10;60.50;;;;;;5051555;28;20170;-72
2022/10/09 08:46:30;;;;;;;5.47;2.72;;;18.20;60.60;;;;;;5051953;28;20250;-71
2022/10/09 08:48:55;;;;;;;7.22;3.08;;;18.20;60.60;;;;;;5052904;28;20186;-72
2022/10/09 08:51:26;;;;;;;6.32;3.25;;;18.20;60.70;;;;;;5050080;28;20195;-71
2022/10/09 08:54:01;;;;;;;7.07;2.97;;;18.30;60.80;;;;;;5035497;28;20179;-72
2022/10/09 08:56:27;;;;;;;9.00;3.38;;;18.30;60.70;;;;;;5052919;28;20617;-73
2022/10/09 08:58:52;;;;;;;8.30;2.60;;;18.40;60.80;;;;;;5050822;28;20173;-71
2022/10/09 09:01:37;;;;;;;9.10;3.10;;;18.40;60.80;;;;;;5052285;28;20299;-74
2022/10/09 09:04:22;;;;;;;4.13;2.55;;;18.40;60.90;;;;;;5052555;28;20321;-70
2022/10/09 09:06:51;;;;;;;4.85;3.00;;;18.40;60.90;;;;;;5035504;28;20245;-70
2022/10/09 09:09:33;;;;;;;7.60;3.05;;;18.40;61.00;;;;;;5051044;28;20194;-68
2022/10/09 09:12:21;;;;;;;7.28;4.28;;;18.50;60.80;;;;;;5053563;28;20309;-66
2022/10/09 09:14:52;;;;;;;8.50;5.03;;;18.40;59.20;;;;;;5055230;28;20242;-72
2022/10/09 09:17:22;;;;;;;9.63;4.55;;;18.20;58.10;;;;;;5055012;28;20531;-68
2022/10/09 09:20:04;;;;;;;10.45;4.90;;;18.30;58.20;;;;;;5054653;28;20198;-70
2022/10/09 09:22:31;;;;;;;8.10;4.40;;;18.30;58.20;;;;;;5054838;28;20253;-72
2022/10/09 09:24:59;;;;;;;8.43;3.78;;;18.30;58.40;;;;;;5055129;28;20676;-71
2022/10/09 09:27:32;;;;;;;6.70;3.67;;;18.30;58.80;;;;;;5055772;28;20267;-71
2022/10/09 09:30:02;;;;;;;8.93;3.50;;;18.40;58.80;;;;;;5065726;28;20202;-73
2022/10/09 09:32:28;;;;;;;9.32;3.45;;;18.40;58.80;;;;;;5076432;28;20218;-70
2022/10/09 09:35:07;;;;;;;7.90;3.60;;;18.50;59.00;;;;;;5075349;28;20182;-71
2022/10/09 09:37:32;;;;;;;7.00;3.35;;;18.60;59.10;;;;;;5057688;28;20178;-73
2022/10/09 09:39:58;;;;;;;10.95;3.75;;;18.60;59.10;;;;;;5054687;28;20183;-71
2022/10/09 09:42:23;;;;;;;4.85;2.97;;;18.60;59.10;;;;;;5055283;28;20172;-73
2022/10/09 09:44:57;;;;;;;6.10;2.90;;;18.70;59.20;;;;;;5055960;28;20540;-72
2022/10/09 09:47:29;;;;;;;8.50;3.22;;;18.70;59.30;;;;;;5054433;28;20171;-72
2022/10/09 09:49:59;;;;;;;4.50;2.72;;;18.70;59.30;;;;;;5054900;28;20182;-73
2022/10/09 09:52:27;;;;;;;6.13;2.53;;;18.70;59.30;;;;;;5055383;28;20271;-73
2022/10/09 09:54:52;;;;;;;6.30;2.97;;;18.70;59.40;;;;;;5054620;28;20186;-70
2022/10/09 09:57:33;;;;;;;10.85;2.85;;;18.70;59.50;;;;;;5054400;28;20171;-69
2022/10/09 10:00:16;;;;;;;9.30;3.17;;;18.70;59.50;;;;;;5054093;28;20179;-72
2022/10/09 10:02:42;;;;;;;7.82;3.35;;;18.70;59.40;;;;;;5055073;28;20717;-72
2022/10/09 10:05:21;;;;;;;7.60;3.28;;;18.80;59.50;;;;;;5054754;28;20261;-72
2022/10/09 10:07:49;;;;;;;6.28;2.90;;;18.80;59.40;;;;;;5057776;28;20214;-72
2022/10/09 10:10:15;;;;;;;7.65;2.42;;;18.80;59.40;;;;;;5068868;28;20542;-71
2022/10/09 10:12:46;;;;;;;6.20;2.75;;;18.80;59.40;;;;;;5075187;28;20213;-71
2022/10/09 10:15:16;;;;;;;8.02;3.58;;;18.80;59.40;;;;;;5037696;28;20654;-71
2022/10/09 10:17:42;;;;;;;5.53;2.65;;;18.80;59.40;;;;;;5037406;28;20175;-71
2022/10/09 10:20:07;;;;;;;5.25;2.70;;;18.80;59.40;;;;;;5054038;28;20178;-72
2022/10/09 10:22:33;;;;;;;4.72;2.67;;;18.80;59.50;;;;;;5062774;28;20198;-71
2022/10/09 10:24:58;;;;;;;4.07;2.88;;;18.80;59.50;;;;;;5055034;28;20212;-72
2022/10/09 10:27:34;;;;;;;5.07;2.78;;;18.90;59.50;;;;;;5053911;28;20658;-71
2022/10/09 10:30:09;;;;;;;3.22;2.55;;;18.90;59.40;;;;;;5046588;28;20186;-72
2022/10/09 10:32:43;;;;;;;3.95;2.25;;;18.90;59.50;;;;;;5073666;28;20340;-72
2022/10/09 10:35:16;;;;;;;5.07;2.40;;;18.90;59.50;;;;;;5057675;28;20191;-73
2022/10/09 10:37:51;;;;;;;5.25;2.70;;;18.90;59.40;;;;;;5056205;28;20178;-71
2022/10/09 10:40:29;;;;;;;4.80;2.80;;;18.90;59.40;;;;;;5057078;28;20185;-70
2022/10/09 10:43:12;;;;;;;3.13;2.30;;;18.90;59.30;;;;;;5035286;28;20199;-71
2022/10/09 10:45:57;;;;;;;3.25;2.20;;;19.00;59.20;;;;;;5032975;28;20179;-70
2022/10/09 10:48:23;;;;;;;4.18;2.58;;;19.00;59.30;;;;;;5034907;28;20156;-71
2022/10/09 10:51:08;;;;;;;3.25;2.17;;;19.00;59.20;;;;;;5033025;28;20172;-73
2022/10/09 10:54:11;;;;;;;4.75;2.60;;;19.00;59.30;;;;;;5035787;28;20180;-73
2022/10/09 10:56:45;;;;;;;8.20;2.78;;;19.10;59.30;;;;;;5054905;28;20185;-74
2022/10/09 10:59:33;;;;;;;7.50;2.65;;;19.10;59.20;;;;;;5036640;28;20198;-69
2022/10/09 11:02:11;;;;;;;4.82;2.58;;;19.10;59.30;;;;;;5053203;28;20195;-70
2022/10/09 11:04:53;;;;;;;4.72;2.63;;;19.20;59.30;;;;;;5053748;28;20668;-67
2022/10/09 11:07:36;;;;;;;5.25;2.78;;;19.20;59.40;;;;;;5037103;28;20626;-71
2022/10/09 11:10:17;;;;;;;4.43;2.55;;;19.20;59.40;;;;;;5052859;28;20175;-70
2022/10/09 11:12:56;;;;;;;3.97;2.28;;;19.20;59.40;;;;;;5053821;28;20202;-68
2022/10/09 11:15:21;;;;;;;3.85;2.25;;;19.20;59.30;;;;;;5073238;28;20189;-70
2022/10/09 11:18:06;;;;;;;4.25;2.70;;;19.30;59.40;;;;;;5074362;28;20253;-69
2022/10/09 11:20:38;;;;;;;4.30;2.35;;;19.30;59.30;;;;;;5072117;28;20531;-69
2022/10/09 11:23:30;;;;;;;6.15;2.38;;;19.30;59.30;;;;;;5071295;28;20178;-69
2022/10/09 11:26:24;;;;;;;4.32;2.20;;;19.30;59.20;;;;;;5036627;28;20599;-70
2022/10/09 11:28:57;;;;;;;4.50;1.92;;;19.30;59.20;;;;;;5052906;28;20179;-69
2022/10/09 11:31:29;;;;;;;3.28;2.00;;;19.30;59.10;;;;;;5056178;28;20654;-69
2022/10/09 11:33:59;;;;;;;5.93;2.30;;;19.40;59.10;;;;;;5055373;28;20175;-67
2022/10/09 11:36:40;;;;;;;4.50;2.15;;;19.30;59.00;;;;;;5056125;28;20231;-67
2022/10/09 11:39:11;;;;;;;4.80;1.98;;;19.40;58.90;;;;;;5059437;28;20209;-67
2022/10/09 11:41:37;;;;;;;6.75;2.28;;;19.40;58.80;;;;;;5051897;28;20187;-71
2022/10/09 11:44:17;;;;;;;4.47;2.30;;;19.40;58.80;;;;;;5051979;28;20167;-70
2022/10/09 11:47:21;;;;;;;5.22;2.63;;;19.40;58.80;;;;;;5052394;28;20190;-73
2022/10/09 11:50:00;;;;;;;6.10;2.85;;;19.40;58.70;;;;;;5052729;28;20163;-69
2022/10/09 11:52:37;;;;;;;8.93;3.08;;;19.40;58.70;;;;;;5056209;28;20207;-75
2022/10/09 11:55:26;;;;;;;5.10;2.05;;;19.40;58.80;;;;;;5051295;28;20175;-70
2022/10/09 11:57:51;;;;;;;6.25;1.92;;;19.30;58.70;;;;;;5053816;28;20179;-68
2022/10/09 12:00:28;;;;;;;6.75;2.10;;;19.40;58.60;;;;;;5051958;28;20163;-69
2022/10/09 12:02:56;;;;;;;5.10;2.38;;;19.40;58.60;;;;;;5052993;28;20178;-70
2022/10/09 12:05:41;;;;;;;5.80;2.10;;;19.40;58.50;;;;;;5035790;28;20657;-68
2022/10/09 12:08:13;;;;;;;4.75;1.98;;;19.40;58.40;;;;;;5035757;28;20171;-69
2022/10/09 12:10:41;;;;;;;4.50;2.17;;;19.40;58.40;;;;;;5051702;28;20233;-72
2022/10/09 12:13:27;;;;;;;4.35;1.90;;;19.40;58.30;;;;;;5054008;28;20571;-70
2022/10/09 12:15:54;;;;;;;3.55;1.85;;;19.40;58.40;;;;;;5051481;28;20617;-67
2022/10/09 12:18:38;;;;;;;5.93;2.42;;;19.30;58.30;;;;;;5051957;28;20217;-69
2022/10/09 12:21:17;;;;;;;5.90;1.95;;;19.40;58.20;;;;;;5051749;28;20175;-67
2022/10/09 12:23:44;;;;;;;4.72;1.85;;;19.40;58.20;;;;;;5051351;28;20178;-69
2022/10/09 12:26:09;;;;;;;5.60;1.95;;;19.40;58.20;;;;;;5051150;28;20175;-69
2022/10/09 12:28:37;;;;;;;5.13;2.00;;;19.40;58.10;;;;;;5051246;28;20241;-69
2022/10/09 12:31:04;;;;;;;3.40;1.73;;;19.40;58.00;;;;;;5052878;28;20216;-68
2022/10/09 12:33:39;;;;;;;3.97;1.60;;;19.40;58.00;;;;;;5073046;28;20696;-69
2022/10/09 12:36:13;;;;;;;3.67;1.70;;;19.40;57.90;;;;;;5070816;28;20165;-67
2022/10/09 12:38:38;;;;;;;2.65;1.65;;;19.40;57.90;;;;;;5073212;28;20251;-67
2022/10/09 12:41:08;;;;;;;2.92;1.90;;;19.40;57.90;;;;;;5066492;28;20625;-68
2022/10/09 12:43:35;;;;;;;2.60;1.42;;;19.40;57.80;;;;;;5051266;28;20259;-69
2022/10/09 12:46:00;;;;;;;4.47;2.08;;;19.40;57.80;;;;;;5052459;28;20199;-67
2022/10/09 12:48:26;;;;;;;3.75;1.73;;;19.40;57.90;;;;;;5051512;28;20684;-71
2022/10/09 12:50:52;;;;;;;2.72;1.75;;;19.40;58.00;;;;;;5050653;28;20179;-68
2022/10/09 12:53:25;;;;;;;2.13;1.38;;;19.40;57.80;;;;;;5051180;28;20265;-69
2022/10/09 12:55:56;;;;;;;2.28;1.98;;;19.50;57.70;;;;;;5052686;28;20191;-67